createdAt,value
2023-01-26T00:04:24.678Z,0.00
2023-01-26T00:09:26.273Z,0.00
2023-01-26T00:14:27.956Z,0.00
2023-01-26T00:19:29.610Z,0.00
2023-01-26T00:24:31.297Z,0.00
2023-01-26T00:29:32.907Z,0.00
2023-01-26T00:34:34.745Z,-0.10
2023-01-26T00:39:36.410Z,-0.10
2023-01-26T00:44:38.730Z,-0.10
2023-01-26T00:49:40.441Z,0.00
2023-01-26T00:54:42.134Z,-0.10
2023-01-26T00:59:43.842Z,-0.10
2023-01-26T01:04:45.531Z,0.00
2023-01-26T01:09:47.187Z,0.00
2023-01-26T01:14:48.945Z,0.00
2023-01-26T01:19:50.587Z,0.00
2023-01-26T01:24:52.278Z,0.00
2023-01-26T01:29:54.034Z,-0.10
2023-01-26T01:34:55.643Z,-0.10
2023-01-26T01:39:57.488Z,-0.10
2023-01-26T01:45:45.627Z,0.00
2023-01-26T01:50:49.921Z,0.00
2023-01-26T01:55:58.232Z,-0.10
2023-01-26T02:01:00.135Z,0.00
2023-01-26T02:06:04.297Z,-0.10
2023-01-26T02:11:13.857Z,-0.10
2023-01-26T02:16:16.804Z,-0.10
2023-01-26T02:21:21.022Z,-0.10
2023-01-26T02:26:24.877Z,-0.20
2023-01-26T02:31:27.706Z,-0.20
2023-01-26T02:36:31.815Z,-0.20
2023-01-26T02:41:51.902Z,-0.20
2023-01-26T02:46:53.761Z,-0.30
2023-01-26T02:51:55.422Z,-0.30
2023-01-26T02:56:57.053Z,-0.30
2023-01-26T03:01:58.874Z,-0.30
2023-01-26T03:07:00.581Z,-0.30
2023-01-26T03:12:02.619Z,-0.30
2023-01-26T03:17:04.294Z,-0.30
2023-01-26T03:22:24.656Z,-0.30
2023-01-26T03:27:26.592Z,-0.30
2023-01-26T03:32:28.309Z,-0.40
2023-01-26T03:37:36.993Z,-0.40
2023-01-26T03:42:57.292Z,-0.40
2023-01-26T03:48:28.560Z,-0.40
2023-01-26T03:53:49.143Z,-0.40
2023-01-26T03:59:12.291Z,-0.40
2023-01-26T04:04:32.682Z,-0.40
2023-01-26T04:09:36.565Z,-0.40
2023-01-26T04:14:57.167Z,-0.40
2023-01-26T04:20:17.635Z,-0.40
2023-01-26T04:25:20.482Z,-0.40
2023-01-26T04:30:24.949Z,-0.40
2023-01-26T04:35:26.753Z,-0.40
2023-01-26T04:40:28.387Z,-0.40
2023-01-26T04:45:30.131Z,-0.40
2023-01-26T04:50:31.880Z,-0.40
2023-01-26T04:55:33.559Z,-0.40
2023-01-26T05:00:35.230Z,-0.40
2023-01-26T05:05:38.061Z,-0.40
2023-01-26T05:10:39.697Z,-0.40
2023-01-26T05:15:41.359Z,-0.40
2023-01-26T05:20:43.040Z,-0.40
2023-01-26T05:25:44.688Z,-0.40
2023-01-26T05:30:47.789Z,-0.40
2023-01-26T05:35:50.353Z,-0.40
2023-01-26T05:40:51.973Z,-0.40
2023-01-26T05:45:53.752Z,-0.40
2023-01-26T05:50:57.585Z,-0.40
2023-01-26T05:55:59.352Z,-0.40
2023-01-26T06:01:04.627Z,-0.40
2023-01-26T06:06:06.488Z,-0.40
2023-01-26T06:11:08.210Z,-0.40
2023-01-26T06:16:09.863Z,-0.40
2023-01-26T06:21:11.494Z,-0.40
2023-01-26T06:26:15.905Z,-0.40
2023-01-26T06:31:17.938Z,-0.40
2023-01-26T06:36:19.871Z,-0.50
2023-01-26T06:41:21.594Z,-0.50
2023-01-26T06:46:24.607Z,-0.50
2023-01-26T06:51:29.173Z,-0.50
2023-01-26T06:56:30.888Z,-0.50
2023-01-26T07:01:39.404Z,-0.50
2023-01-26T07:06:42.725Z,-0.50
2023-01-26T07:11:44.704Z,-0.50
2023-01-26T07:16:46.382Z,-0.50
2023-01-26T07:21:49.826Z,-0.50
2023-01-26T07:26:51.545Z,-0.50
2023-01-26T07:31:53.324Z,-0.50
2023-01-26T07:36:55.047Z,-0.50
2023-01-26T07:41:56.733Z,-0.60
2023-01-26T07:46:58.480Z,-0.50
2023-01-26T07:52:00.159Z,-0.50
2023-01-26T07:57:01.972Z,-0.50
2023-01-26T08:02:04.727Z,-0.50
2023-01-26T08:07:06.434Z,-0.50
2023-01-26T08:12:08.413Z,-0.50
2023-01-26T08:17:10.084Z,-0.40
2023-01-26T08:22:11.933Z,-0.40
2023-01-26T08:27:21.827Z,-0.40
2023-01-26T08:32:23.521Z,-0.30
2023-01-26T08:37:30.628Z,-0.20
2023-01-26T08:42:33.369Z,-0.20
2023-01-26T08:47:35.101Z,-0.20
2023-01-26T08:52:36.969Z,-0.20
2023-01-26T08:57:38.763Z,-0.10
2023-01-26T09:02:42.117Z,-0.10
2023-01-26T09:07:45.721Z,0.00
2023-01-26T09:12:47.360Z,0.10
2023-01-26T09:17:51.575Z,0.10
2023-01-26T09:22:54.568Z,0.10
2023-01-26T09:27:56.520Z,0.20
2023-01-26T09:33:03.064Z,0.20
2023-01-26T09:38:04.928Z,0.30
2023-01-26T09:43:25.452Z,0.30
2023-01-26T09:48:32.737Z,0.30
2023-01-26T09:53:57.357Z,0.30
2023-01-26T09:59:08.090Z,0.30
2023-01-26T10:04:27.174Z,0.30
2023-01-26T10:09:36.181Z,0.30
2023-01-26T10:14:58.876Z,0.40
2023-01-26T10:20:29.433Z,0.40
2023-01-26T10:25:41.842Z,0.40
2023-01-26T10:30:46.339Z,0.40
2023-01-26T10:35:48.152Z,0.40
2023-01-26T10:40:52.820Z,0.50
2023-01-26T10:45:55.707Z,0.60
2023-01-26T10:51:15.997Z,0.60
2023-01-26T10:56:17.720Z,0.60
2023-01-26T11:01:25.067Z,0.70
2023-01-26T11:06:31.767Z,0.70
2023-01-26T11:11:33.486Z,0.70
2023-01-26T11:16:35.412Z,0.70
2023-01-26T11:21:45.163Z,0.70
2023-01-26T11:27:14.851Z,0.70
2023-01-26T11:32:49.875Z,0.70
2023-01-26T11:38:12.557Z,0.80
2023-01-26T11:43:35.307Z,0.80
2023-01-26T11:48:37.293Z,0.80
2023-01-26T11:54:08.502Z,0.90
2023-01-26T11:59:16.424Z,0.90
2023-01-26T12:04:20.730Z,1.00
2023-01-26T12:09:26.999Z,1.00
2023-01-26T12:14:46.347Z,1.00
2023-01-26T12:20:29.769Z,1.00
2023-01-26T12:25:47.653Z,1.00
2023-01-26T12:31:10.289Z,1.10
2023-01-26T12:36:19.516Z,1.10
2023-01-26T12:41:45.096Z,1.10
2023-01-26T12:47:30.114Z,1.10
2023-01-26T12:52:53.445Z,1.10
2023-01-26T12:58:03.726Z,1.10
2023-01-26T13:03:14.771Z,1.10
2023-01-26T13:08:31.506Z,1.10
2023-01-26T13:13:52.016Z,1.20
2023-01-26T13:18:55.806Z,1.20
2023-01-26T13:23:57.492Z,1.20
2023-01-26T13:29:33.498Z,1.20
2023-01-26T13:34:45.074Z,1.10
2023-01-26T13:39:54.274Z,1.10
2023-01-26T13:45:19.449Z,1.10
2023-01-26T13:50:37.751Z,1.10
2023-01-26T13:55:42.195Z,1.10
2023-01-26T14:01:07.559Z,1.10
2023-01-26T14:06:22.526Z,1.10
2023-01-26T14:11:27.522Z,1.10
2023-01-26T14:16:32.185Z,1.10
2023-01-26T14:21:46.592Z,1.00
2023-01-26T14:26:49.047Z,1.00
2023-01-26T14:31:53.116Z,1.00
2023-01-26T14:37:14.029Z,1.00
2023-01-26T14:42:18.453Z,1.00
2023-01-26T14:47:30.956Z,1.00
2023-01-26T14:52:35.527Z,0.90
2023-01-26T14:57:37.366Z,0.90
2023-01-26T15:02:44.160Z,0.90
2023-01-26T15:07:57.002Z,0.90
2023-01-26T15:13:02.779Z,0.90
2023-01-26T15:18:13.657Z,0.90
2023-01-26T15:23:23.104Z,1.00
2023-01-26T15:28:26.050Z,0.90
2023-01-26T15:33:47.887Z,1.00
2023-01-26T15:38:49.811Z,1.00
2023-01-26T15:43:51.505Z,1.00
2023-01-26T15:48:53.447Z,1.00
2023-01-26T15:53:55.160Z,1.00
2023-01-26T15:58:57.507Z,1.00
2023-01-26T16:03:59.220Z,1.00
2023-01-26T16:09:01.012Z,1.00
2023-01-26T16:14:04.342Z,1.10
2023-01-26T16:19:06.202Z,1.00
2023-01-26T16:24:10.093Z,1.00
2023-01-26T16:29:11.852Z,1.10
2023-01-26T16:34:13.534Z,1.10
2023-01-26T16:39:16.344Z,1.10
2023-01-26T16:44:19.512Z,1.20
2023-01-26T16:49:21.407Z,1.10
2023-01-26T16:54:23.240Z,1.20
2023-01-26T16:59:24.971Z,1.20
2023-01-26T17:04:26.698Z,1.20
2023-01-26T17:09:28.589Z,1.20
2023-01-26T17:14:30.335Z,1.30
2023-01-26T17:19:32.095Z,1.30
2023-01-26T17:24:33.931Z,1.30
2023-01-26T17:29:36.061Z,1.30
2023-01-26T17:34:37.788Z,1.30
2023-01-26T17:39:39.496Z,1.40
2023-01-26T17:44:42.236Z,1.40
2023-01-26T17:49:44.000Z,1.50
2023-01-26T17:54:45.712Z,1.50
2023-01-26T17:59:47.391Z,1.50
2023-01-26T18:04:49.130Z,1.60
2023-01-26T18:09:50.932Z,1.60
2023-01-26T18:14:54.911Z,1.60
2023-01-26T18:19:56.902Z,1.70
2023-01-26T18:24:59.199Z,1.70
2023-01-26T18:30:01.024Z,1.70
2023-01-26T18:35:02.716Z,1.80
2023-01-26T18:40:05.137Z,1.80
2023-01-26T18:45:07.731Z,1.90
2023-01-26T18:50:10.771Z,1.90
2023-01-26T18:55:12.761Z,2.00
2023-01-26T19:00:14.857Z,2.00
2023-01-26T19:05:16.674Z,2.10
2023-01-26T19:10:18.423Z,2.10
2023-01-26T19:15:20.225Z,2.10
2023-01-26T19:20:22.341Z,2.10
2023-01-26T19:25:25.698Z,2.10
2023-01-26T19:30:27.511Z,2.20
2023-01-26T19:35:30.677Z,2.20
2023-01-26T19:40:33.514Z,2.20
2023-01-26T19:45:35.368Z,2.20
2023-01-26T19:50:37.200Z,2.30
2023-01-26T19:55:39.010Z,2.30
2023-01-26T20:00:40.770Z,2.30
2023-01-26T20:05:42.410Z,2.30
2023-01-26T20:10:44.079Z,2.40
2023-01-26T20:15:45.861Z,2.40
2023-01-26T20:20:51.565Z,2.40
2023-01-26T20:26:00.759Z,2.40
2023-01-26T20:31:13.791Z,2.40
2023-01-26T20:36:18.056Z,2.50
2023-01-26T20:41:25.945Z,2.50
2023-01-26T20:46:33.006Z,2.50
2023-01-26T20:51:36.426Z,2.50
2023-01-26T20:56:38.398Z,2.50
2023-01-26T21:01:40.385Z,2.60
2023-01-26T21:06:42.400Z,2.60
2023-01-26T21:11:44.143Z,2.60
2023-01-26T21:16:46.817Z,2.60
2023-01-26T21:21:48.518Z,2.70
2023-01-26T21:26:50.368Z,2.70
2023-01-26T21:31:52.316Z,2.70
2023-01-26T21:36:55.173Z,2.70
2023-01-26T21:41:56.937Z,2.70
2023-01-26T21:47:03.729Z,2.80
2023-01-26T21:52:24.289Z,2.70
2023-01-26T21:57:44.670Z,2.80
2023-01-26T22:02:46.978Z,2.80
2023-01-26T22:07:48.659Z,2.80
2023-01-26T22:12:50.685Z,2.80
2023-01-26T22:17:52.399Z,2.80
2023-01-26T22:22:54.027Z,2.80
2023-01-26T22:27:55.783Z,2.80
2023-01-26T22:32:57.474Z,2.90
2023-01-26T22:37:59.990Z,2.80
2023-01-26T22:43:01.689Z,2.90
2023-01-26T22:48:04.097Z,2.90
2023-01-26T22:53:05.781Z,2.90
2023-01-26T22:58:08.059Z,2.90
2023-01-26T23:03:09.722Z,2.90
2023-01-26T23:08:11.557Z,2.90
2023-01-26T23:13:13.223Z,2.90
2023-01-26T23:18:14.831Z,2.90
2023-01-26T23:23:16.531Z,2.90
2023-01-26T23:28:20.549Z,3.00
2023-01-26T23:33:24.210Z,3.00
2023-01-26T23:38:27.645Z,3.00
2023-01-26T23:43:29.273Z,3.00
2023-01-26T23:48:31.096Z,3.00
2023-01-26T23:53:33.165Z,3.00
2023-01-26T23:58:36.514Z,3.00
